sensor_id;sensor_type;location;lat;lon;timestamp;P1;durP1;ratioP1;P2;durP2;ratioP2
46399;SDS011;32104;50.838;4.388;2023-10-09T06:21:11;20.75;;;5.93;;
46399;SDS011;32104;50.838;4.388;2023-10-09T17:37:53;15.82;;;5.55;;
46399;SDS011;32104;50.838;4.388;2023-10-09T17:41:06;12.70;;;5.13;;
46399;SDS011;32104;50.838;4.388;2023-10-09T17:51:25;13.32;;;5.35;;
46399;SDS011;32104;50.838;4.388;2023-10-09T18:01:28;13.82;;;5.10;;
46399;SDS011;32104;50.838;4.388;2023-10-09T18:35:16;11.68;;;5.40;;
46399;SDS011;32104;50.838;4.388;2023-10-09T18:48:21;11.48;;;4.95;;
46399;SDS011;32104;50.838;4.388;2023-10-09T18:54:18;17.95;;;5.70;;
46399;SDS011;32104;50.838;4.388;2023-10-09T19:07:28;12.15;;;5.28;;
46399;SDS011;32104;50.838;4.388;2023-10-09T19:18:17;10.75;;;5.20;;
46399;SDS011;32104;50.838;4.388;2023-10-09T19:36:28;15.38;;;5.97;;
46399;SDS011;32104;50.838;4.388;2023-10-09T19:43:02;13.57;;;5.70;;
46399;SDS011;32104;50.838;4.388;2023-10-09T19:55:49;14.05;;;6.47;;
46399;SDS011;32104;50.838;4.388;2023-10-09T20:05:00;15.10;;;6.43;;
46399;SDS011;32104;50.838;4.388;2023-10-09T20:07:44;16.58;;;6.00;;
46399;SDS011;32104;50.838;4.388;2023-10-09T20:10:22;14.35;;;6.57;;
46399;SDS011;32104;50.838;4.388;2023-10-09T20:15:59;17.05;;;6.57;;
46399;SDS011;32104;50.838;4.388;2023-10-09T20:21:38;16.05;;;6.05;;
46399;SDS011;32104;50.838;4.388;2023-10-09T20:27:49;19.88;;;7.38;;
46399;SDS011;32104;50.838;4.388;2023-10-09T20:30:45;15.18;;;7.18;;
46399;SDS011;32104;50.838;4.388;2023-10-09T20:33:31;20.60;;;7.28;;
46399;SDS011;32104;50.838;4.388;2023-10-09T20:36:08;17.75;;;7.10;;
46399;SDS011;32104;50.838;4.388;2023-10-09T20:41:08;17.65;;;6.80;;
46399;SDS011;32104;50.838;4.388;2023-10-09T20:43:38;20.77;;;7.45;;
46399;SDS011;32104;50.838;4.388;2023-10-09T20:46:18;16.73;;;6.95;;
46399;SDS011;32104;50.838;4.388;2023-10-09T20:49:09;18.95;;;7.53;;
46399;SDS011;32104;50.838;4.388;2023-10-09T20:52:06;14.68;;;6.28;;
46399;SDS011;32104;50.838;4.388;2023-10-09T20:55:01;19.90;;;7.68;;
46399;SDS011;32104;50.838;4.388;2023-10-09T20:57:30;19.65;;;7.35;;
46399;SDS011;32104;50.838;4.388;2023-10-09T20:59:59;16.15;;;6.38;;
46399;SDS011;32104;50.838;4.388;2023-10-09T21:06:07;20.13;;;8.35;;
46399;SDS011;32104;50.838;4.388;2023-10-09T21:08:56;16.15;;;7.25;;
46399;SDS011;32104;50.838;4.388;2023-10-09T21:11:34;15.93;;;5.97;;
46399;SDS011;32104;50.838;4.388;2023-10-09T21:14:24;14.85;;;7.20;;
46399;SDS011;32104;50.838;4.388;2023-10-09T21:17:02;14.45;;;6.60;;
46399;SDS011;32104;50.838;4.388;2023-10-09T21:19:42;15.43;;;6.68;;
46399;SDS011;32104;50.838;4.388;2023-10-09T21:22:17;16.55;;;6.85;;
46399;SDS011;32104;50.838;4.388;2023-10-09T21:24:59;15.25;;;6.80;;
46399;SDS011;32104;50.838;4.388;2023-10-09T21:28:01;13.27;;;6.45;;
46399;SDS011;32104;50.838;4.388;2023-10-09T21:31:04;16.30;;;6.90;;
46399;SDS011;32104;50.838;4.388;2023-10-09T21:33:56;14.95;;;6.13;;
46399;SDS011;32104;50.838;4.388;2023-10-09T21:36:40;20.30;;;7.10;;
46399;SDS011;32104;50.838;4.388;2023-10-09T21:39:29;15.20;;;5.80;;
46399;SDS011;32104;50.838;4.388;2023-10-09T21:42:21;12.90;;;6.13;;
46399;SDS011;32104;50.838;4.388;2023-10-09T22:06:17;15.57;;;6.75;;
46399;SDS011;32104;50.838;4.388;2023-10-09T22:08:55;16.47;;;6.53;;
46399;SDS011;32104;50.838;4.388;2023-10-09T22:11:53;19.48;;;6.35;;
46399;SDS011;32104;50.838;4.388;2023-10-09T22:14:45;20.92;;;6.65;;
46399;SDS011;32104;50.838;4.388;2023-10-09T22:17:45;17.75;;;6.68;;
46399;SDS011;32104;50.838;4.388;2023-10-09T22:21:03;14.90;;;6.80;;
46399;SDS011;32104;50.838;4.388;2023-10-09T22:28:19;16.33;;;5.70;;
46399;SDS011;32104;50.838;4.388;2023-10-09T22:30:50;14.93;;;6.38;;
46399;SDS011;32104;50.838;4.388;2023-10-09T22:37:16;12.77;;;6.20;;
46399;SDS011;32104;50.838;4.388;2023-10-09T22:39:55;12.95;;;6.38;;
46399;SDS011;32104;50.838;4.388;2023-10-09T22:42:47;13.77;;;5.88;;
46399;SDS011;32104;50.838;4.388;2023-10-09T22:45:28;13.75;;;5.38;;
46399;SDS011;32104;50.838;4.388;2023-10-09T22:48:32;13.82;;;6.40;;
46399;SDS011;32104;50.838;4.388;2023-10-09T22:51:07;13.48;;;5.72;;
46399;SDS011;32104;50.838;4.388;2023-10-09T22:53:41;20.83;;;6.53;;
46399;SDS011;32104;50.838;4.388;2023-10-09T22:56:20;10.60;;;5.05;;
46399;SDS011;32104;50.838;4.388;2023-10-09T22:59:05;12.23;;;5.85;;
46399;SDS011;32104;50.838;4.388;2023-10-09T23:02:10;14.98;;;6.38;;
46399;SDS011;32104;50.838;4.388;2023-10-09T23:05:12;19.63;;;6.00;;
46399;SDS011;32104;50.838;4.388;2023-10-09T23:08:10;13.65;;;6.28;;
46399;SDS011;32104;50.838;4.388;2023-10-09T23:10:53;13.05;;;5.93;;
46399;SDS011;32104;50.838;4.388;2023-10-09T23:13:47;14.57;;;5.85;;
46399;SDS011;32104;50.838;4.388;2023-10-09T23:16:38;13.60;;;6.13;;
46399;SDS011;32104;50.838;4.388;2023-10-09T23:20:05;16.38;;;6.28;;
46399;SDS011;32104;50.838;4.388;2023-10-09T23:26:14;10.77;;;4.80;;
46399;SDS011;32104;50.838;4.388;2023-10-09T23:29:07;12.48;;;4.97;;
46399;SDS011;32104;50.838;4.388;2023-10-09T23:31:59;13.13;;;4.00;;
46399;SDS011;32104;50.838;4.388;2023-10-09T23:34:45;13.27;;;5.07;;
46399;SDS011;32104;50.838;4.388;2023-10-09T23:37:34;13.50;;;4.90;;
46399;SDS011;32104;50.838;4.388;2023-10-09T23:44:07;17.95;;;5.28;;
46399;SDS011;32104;50.838;4.388;2023-10-09T23:47:27;16.05;;;4.75;;
46399;SDS011;32104;50.838;4.388;2023-10-09T23:49:59;13.23;;;4.78;;
46399;SDS011;32104;50.838;4.388;2023-10-09T23:52:56;14.45;;;4.90;;
46399;SDS011;32104;50.838;4.388;2023-10-09T23:55:47;13.85;;;5.18;;
